RYR7F EPMO-LICA
Flight info
| Callsign | RYR7F |
|---|---|
| Flight time | 2h 13m |
| Altitude | 38000 |
| Route | EVINA M66 BABKO DCT VEBAL DCT KATTI DCT VEGAN DCT ARBUM |
| Aircraft | B738/M-SDE2E3FGHIRWXY/LB1 |
Departure
| Time | 2026-05-09 10:05 |
|---|---|
| Airport | Warsaw Modlin Airport (EPMO) |
Arrival
| Time | 2026-05-09 12:19 |
|---|---|
| Airport | Lamezia Terme Sant'Eufemia International Airport (LICA) |
| Time | Latitude | Longitude | Altitude | Speed | Heading |
|---|---|---|---|---|---|
| 2026-05-09 09:47 | 52.44737 | 20.65178 | 337 ft | 0 kts | 205° |
| 2026-05-09 09:58 | 52.44740 | 20.65180 | 337 ft | 2 kts | 205° |
| 2026-05-09 09:59 | 52.44756 | 20.65191 | 333 ft | 3 kts | 186° |
| 2026-05-09 09:59 | 52.44774 | 20.65189 | 334 ft | 3 kts | 145° |
| 2026-05-09 09:59 | 52.44783 | 20.65173 | 333 ft | 2 kts | 86° |
| 2026-05-09 09:59 | 52.44782 | 20.65161 | 335 ft | 1 kts | 81° |
| 2026-05-09 10:00 | 52.44782 | 20.65160 | 335 ft | 0 kts | 81° |
| 2026-05-09 10:01 | 52.44790 | 20.65245 | 336 ft | 14 kts | 81° |
| 2026-05-09 10:02 | 52.44811 | 20.65473 | 335 ft | 26 kts | 81° |
| 2026-05-09 10:02 | 52.44835 | 20.65757 | 337 ft | 24 kts | 82° |
| 2026-05-09 10:02 | 52.44861 | 20.66022 | 337 ft | 23 kts | 81° |
| 2026-05-09 10:02 | 52.44886 | 20.66303 | 337 ft | 26 kts | 81° |
| 2026-05-09 10:03 | 52.44913 | 20.66581 | 336 ft | 24 kts | 81° |
| 2026-05-09 10:03 | 52.44937 | 20.66841 | 337 ft | 22 kts | 81° |
| 2026-05-09 10:03 | 52.44977 | 20.67070 | 335 ft | 20 kts | 33° |
| 2026-05-09 10:03 | 52.45110 | 20.67055 | 334 ft | 19 kts | 352° |
| 2026-05-09 10:04 | 52.45228 | 20.67011 | 334 ft | 10 kts | 341° |
| 2026-05-09 10:04 | 52.45285 | 20.66980 | 334 ft | 7 kts | 322° |
| 2026-05-09 10:04 | 52.45284 | 20.66908 | 338 ft | 7 kts | 261° |
| 2026-05-09 10:04 | 52.45273 | 20.66788 | 336 ft | 22 kts | 261° |
| 2026-05-09 10:05 | 52.45208 | 20.66097 | 336 ft | 99 kts | 261° |
| 2026-05-09 10:05 | 52.45068 | 20.64600 | 339 ft | 164 kts | 262° |
| 2026-05-09 10:05 | 52.44896 | 20.62660 | 1015 ft | 169 kts | 265° |
| 2026-05-09 10:05 | 52.44728 | 20.60752 | 1996 ft | 171 kts | 266° |
| 2026-05-09 10:06 | 52.44569 | 20.58734 | 2572 ft | 195 kts | 265° |
| 2026-05-09 10:06 | 52.44317 | 20.56474 | 3214 ft | 206 kts | 262° |
| 2026-05-09 10:06 | 52.44258 | 20.54116 | 3780 ft | 215 kts | 274° |
| 2026-05-09 10:06 | 52.43798 | 20.51589 | 3992 ft | 254 kts | 236° |
| 2026-05-09 10:07 | 52.42399 | 20.49626 | 4282 ft | 287 kts | 208° |
| 2026-05-09 10:07 | 52.40433 | 20.48557 | 4834 ft | 306 kts | 195° |
| 2026-05-09 10:07 | 52.38335 | 20.47720 | 5683 ft | 312 kts | 194° |
| 2026-05-09 10:07 | 52.36224 | 20.46898 | 6709 ft | 313 kts | 194° |
| 2026-05-09 10:08 | 52.34083 | 20.46071 | 7600 ft | 316 kts | 195° |
| 2026-05-09 10:08 | 52.31937 | 20.45244 | 8544 ft | 318 kts | 195° |
| 2026-05-09 10:08 | 52.29773 | 20.44411 | 9449 ft | 321 kts | 195° |
| 2026-05-09 10:08 | 52.27595 | 20.43574 | 10345 ft | 323 kts | 195° |
| 2026-05-09 10:09 | 52.25389 | 20.42725 | 11031 ft | 332 kts | 196° |
| 2026-05-09 10:09 | 52.23093 | 20.41838 | 11266 ft | 353 kts | 195° |
| 2026-05-09 10:09 | 52.20671 | 20.40906 | 11868 ft | 361 kts | 195° |
| 2026-05-09 10:09 | 52.18212 | 20.39965 | 12652 ft | 364 kts | 195° |
| 2026-05-09 10:10 | 52.15737 | 20.39020 | 13458 ft | 366 kts | 195° |
| 2026-05-09 10:10 | 52.13245 | 20.38068 | 14191 ft | 370 kts | 195° |
| 2026-05-09 10:10 | 52.10726 | 20.37107 | 14868 ft | 374 kts | 195° |
| 2026-05-09 10:10 | 52.08181 | 20.36137 | 15559 ft | 376 kts | 195° |
| 2026-05-09 10:11 | 52.05615 | 20.35159 | 16237 ft | 380 kts | 195° |
| 2026-05-09 10:11 | 52.03029 | 20.34174 | 16917 ft | 383 kts | 195° |
| 2026-05-09 10:11 | 52.00425 | 20.33184 | 17580 ft | 386 kts | 196° |
| 2026-05-09 10:11 | 51.97793 | 20.32183 | 18246 ft | 389 kts | 196° |
| 2026-05-09 10:12 | 51.95141 | 20.31177 | 18845 ft | 393 kts | 196° |
| 2026-05-09 10:12 | 51.92510 | 20.30180 | 19405 ft | 395 kts | 196° |
| 2026-05-09 10:12 | 51.89821 | 20.29162 | 19984 ft | 398 kts | 196° |
| 2026-05-09 10:12 | 51.87111 | 20.28137 | 20552 ft | 401 kts | 196° |
| 2026-05-09 10:13 | 51.84387 | 20.27108 | 21099 ft | 403 kts | 196° |
| 2026-05-09 10:13 | 51.81633 | 20.26069 | 21641 ft | 406 kts | 196° |
| 2026-05-09 10:13 | 51.78862 | 20.25026 | 22175 ft | 409 kts | 195° |
| 2026-05-09 10:13 | 51.76085 | 20.23981 | 22694 ft | 412 kts | 195° |
| 2026-05-09 10:14 | 51.73277 | 20.22925 | 23203 ft | 415 kts | 195° |
| 2026-05-09 10:14 | 51.70450 | 20.21864 | 23694 ft | 418 kts | 195° |
| 2026-05-09 10:14 | 51.67608 | 20.20799 | 24115 ft | 420 kts | 195° |
| 2026-05-09 10:14 | 51.64781 | 20.19741 | 24525 ft | 422 kts | 195° |
| 2026-05-09 10:15 | 51.61905 | 20.18666 | 24944 ft | 424 kts | 195° |
| 2026-05-09 10:15 | 51.59018 | 20.17588 | 25334 ft | 427 kts | 195° |
| 2026-05-09 10:15 | 51.56104 | 20.16501 | 25728 ft | 429 kts | 195° |
| 2026-05-09 10:15 | 51.53219 | 20.15427 | 26104 ft | 431 kts | 195° |
| 2026-05-09 10:16 | 51.50280 | 20.14334 | 26484 ft | 434 kts | 195° |
| 2026-05-09 10:16 | 51.47335 | 20.13240 | 26855 ft | 436 kts | 195° |
| 2026-05-09 10:16 | 51.44358 | 20.12136 | 27220 ft | 438 kts | 195° |
| 2026-05-09 10:16 | 51.41375 | 20.11031 | 27573 ft | 440 kts | 195° |
| 2026-05-09 10:17 | 51.38423 | 20.09938 | 27914 ft | 442 kts | 195° |
| 2026-05-09 10:17 | 51.35384 | 20.08816 | 28270 ft | 444 kts | 195° |
| 2026-05-09 10:17 | 51.32407 | 20.07718 | 28669 ft | 444 kts | 195° |
| 2026-05-09 10:17 | 51.29407 | 20.06614 | 29185 ft | 441 kts | 195° |
| 2026-05-09 10:18 | 51.26425 | 20.05518 | 29753 ft | 438 kts | 195° |
| 2026-05-09 10:18 | 51.23457 | 20.04428 | 30265 ft | 436 kts | 195° |
| 2026-05-09 10:18 | 51.20501 | 20.03344 | 30636 ft | 435 kts | 196° |
| 2026-05-09 10:18 | 51.17540 | 20.02258 | 30975 ft | 435 kts | 196° |
| 2026-05-09 10:19 | 51.14587 | 20.01177 | 31332 ft | 435 kts | 196° |
| 2026-05-09 10:19 | 51.11643 | 20.00100 | 31715 ft | 433 kts | 196° |
| 2026-05-09 10:19 | 51.08738 | 19.99039 | 32081 ft | 432 kts | 196° |
| 2026-05-09 10:19 | 51.05795 | 19.97966 | 32422 ft | 432 kts | 196° |
| 2026-05-09 10:20 | 51.02863 | 19.96898 | 32755 ft | 432 kts | 196° |
| 2026-05-09 10:20 | 50.99924 | 19.95830 | 33109 ft | 431 kts | 196° |
| 2026-05-09 10:20 | 50.97040 | 19.94782 | 33443 ft | 430 kts | 196° |
| 2026-05-09 10:20 | 50.94112 | 19.93720 | 33749 ft | 430 kts | 196° |
| 2026-05-09 10:21 | 50.91186 | 19.92659 | 34076 ft | 430 kts | 196° |
| 2026-05-09 10:21 | 50.88267 | 19.91603 | 34349 ft | 430 kts | 196° |
| 2026-05-09 10:21 | 50.85336 | 19.90544 | 34568 ft | 430 kts | 196° |
| 2026-05-09 10:21 | 50.82411 | 19.89488 | 34792 ft | 431 kts | 196° |
| 2026-05-09 10:22 | 50.79522 | 19.88447 | 35019 ft | 431 kts | 196° |
| 2026-05-09 10:22 | 50.76594 | 19.87393 | 35253 ft | 431 kts | 196° |
| 2026-05-09 10:22 | 50.73663 | 19.86340 | 35477 ft | 431 kts | 195° |
| 2026-05-09 10:22 | 50.70730 | 19.85287 | 35686 ft | 432 kts | 195° |
| 2026-05-09 10:23 | 50.67803 | 19.84237 | 35900 ft | 432 kts | 195° |
| 2026-05-09 10:23 | 50.64857 | 19.83182 | 36133 ft | 432 kts | 195° |
| 2026-05-09 10:23 | 50.61961 | 19.82146 | 36325 ft | 432 kts | 195° |
| 2026-05-09 10:23 | 50.59021 | 19.81096 | 36516 ft | 433 kts | 195° |
| 2026-05-09 10:24 | 50.56079 | 19.80047 | 36734 ft | 433 kts | 195° |
| 2026-05-09 10:24 | 50.53140 | 19.79000 | 36945 ft | 433 kts | 195° |
| 2026-05-09 10:24 | 50.50201 | 19.77954 | 37134 ft | 433 kts | 195° |
| 2026-05-09 10:24 | 50.47260 | 19.76909 | 37312 ft | 434 kts | 195° |
| 2026-05-09 10:25 | 50.44305 | 19.75860 | 37498 ft | 434 kts | 195° |
| 2026-05-09 10:25 | 50.41358 | 19.74815 | 37696 ft | 434 kts | 195° |
| 2026-05-09 10:25 | 50.38448 | 19.73785 | 37889 ft | 434 kts | 195° |
| 2026-05-09 10:25 | 50.35503 | 19.72744 | 38052 ft | 434 kts | 195° |
| 2026-05-09 10:26 | 50.32556 | 19.71704 | 38170 ft | 434 kts | 195° |
| 2026-05-09 10:26 | 50.26636 | 19.69617 | 38186 ft | 436 kts | 195° |
| 2026-05-09 10:27 | 50.20724 | 19.67539 | 38177 ft | 435 kts | 195° |
| 2026-05-09 10:27 | 50.14824 | 19.65471 | 38181 ft | 433 kts | 195° |
| 2026-05-09 10:28 | 50.08971 | 19.63423 | 38183 ft | 432 kts | 195° |
| 2026-05-09 10:28 | 50.03101 | 19.61375 | 38186 ft | 431 kts | 195° |
| 2026-05-09 10:29 | 49.97241 | 19.59336 | 38180 ft | 431 kts | 195° |
| 2026-05-09 10:29 | 49.91416 | 19.57313 | 38185 ft | 430 kts | 195° |
| 2026-05-09 10:30 | 49.85559 | 19.55284 | 38179 ft | 431 kts | 195° |
| 2026-05-09 10:30 | 49.79732 | 19.53272 | 38180 ft | 431 kts | 195° |
| 2026-05-09 10:31 | 49.73855 | 19.51246 | 38179 ft | 431 kts | 195° |
| 2026-05-09 10:31 | 49.67978 | 19.49225 | 38182 ft | 432 kts | 195° |
| 2026-05-09 10:32 | 49.62097 | 19.47196 | 38174 ft | 432 kts | 197° |
| 2026-05-09 10:32 | 49.56527 | 19.44037 | 38174 ft | 429 kts | 206° |
| 2026-05-09 10:33 | 49.51024 | 19.40414 | 38158 ft | 429 kts | 206° |
| 2026-05-09 10:33 | 49.45514 | 19.36811 | 38156 ft | 430 kts | 206° |
| 2026-05-09 10:34 | 49.39993 | 19.33246 | 38173 ft | 430 kts | 205° |
| 2026-05-09 10:34 | 49.31721 | 19.27948 | 38136 ft | 431 kts | 205° |
| 2026-05-09 10:35 | 49.26176 | 19.24410 | 38132 ft | 430 kts | 205° |
| 2026-05-09 10:35 | 49.20684 | 19.20916 | 38132 ft | 430 kts | 205° |
| 2026-05-09 10:36 | 49.15159 | 19.17412 | 38133 ft | 428 kts | 205° |
| 2026-05-09 10:36 | 49.09654 | 19.13925 | 38119 ft | 428 kts | 206° |
| 2026-05-09 10:37 | 49.04162 | 19.10453 | 38105 ft | 427 kts | 206° |
| 2026-05-09 10:37 | 48.98681 | 19.06994 | 38110 ft | 426 kts | 206° |
| 2026-05-09 10:38 | 48.93223 | 19.03560 | 38105 ft | 426 kts | 206° |
| 2026-05-09 10:38 | 48.87727 | 19.00109 | 38105 ft | 427 kts | 206° |
| 2026-05-09 10:39 | 48.82226 | 18.96667 | 38105 ft | 427 kts | 206° |
| 2026-05-09 10:39 | 48.76769 | 18.93258 | 38101 ft | 427 kts | 206° |
| 2026-05-09 10:40 | 48.71259 | 18.89826 | 38084 ft | 427 kts | 206° |
| 2026-05-09 10:40 | 48.65754 | 18.86405 | 38096 ft | 427 kts | 206° |
| 2026-05-09 10:41 | 48.60281 | 18.83011 | 38095 ft | 427 kts | 206° |
| 2026-05-09 10:41 | 48.54773 | 18.79604 | 38087 ft | 427 kts | 206° |
| 2026-05-09 10:42 | 48.49296 | 18.76223 | 38087 ft | 427 kts | 206° |
| 2026-05-09 10:42 | 48.43790 | 18.72833 | 38093 ft | 426 kts | 206° |
| 2026-05-09 10:43 | 48.38325 | 18.69476 | 38085 ft | 426 kts | 206° |
| 2026-05-09 10:43 | 48.33714 | 18.66649 | 38089 ft | 426 kts | 206° |
| 2026-05-09 10:44 | 48.28255 | 18.63310 | 38088 ft | 426 kts | 206° |
| 2026-05-09 10:44 | 48.22770 | 18.59963 | 38088 ft | 425 kts | 206° |
| 2026-05-09 10:46 | 48.09099 | 18.51655 | 38087 ft | 424 kts | 206° |
| 2026-05-09 10:46 | 48.03633 | 18.48345 | 38088 ft | 423 kts | 206° |
| 2026-05-09 10:47 | 47.98203 | 18.45066 | 38092 ft | 422 kts | 206° |
| 2026-05-09 10:47 | 47.92747 | 18.41778 | 38095 ft | 422 kts | 206° |
| 2026-05-09 10:48 | 47.87292 | 18.38498 | 38090 ft | 422 kts | 206° |
| 2026-05-09 10:48 | 47.81875 | 18.35249 | 38097 ft | 421 kts | 206° |
| 2026-05-09 10:49 | 47.76443 | 18.31998 | 38093 ft | 420 kts | 206° |
| 2026-05-09 10:49 | 47.71046 | 18.28775 | 38102 ft | 419 kts | 206° |
| 2026-05-09 10:50 | 47.65637 | 18.25552 | 38109 ft | 419 kts | 206° |
| 2026-05-09 10:50 | 47.60225 | 18.22335 | 38107 ft | 418 kts | 206° |
| 2026-05-09 10:51 | 47.54827 | 18.19133 | 38111 ft | 418 kts | 206° |
| 2026-05-09 10:51 | 47.49426 | 18.15937 | 38106 ft | 417 kts | 206° |
| 2026-05-09 10:52 | 47.44060 | 18.12768 | 38105 ft | 417 kts | 206° |
| 2026-05-09 10:52 | 47.38670 | 18.09591 | 38098 ft | 416 kts | 206° |
| 2026-05-09 10:53 | 47.33279 | 18.06422 | 38095 ft | 416 kts | 206° |
| 2026-05-09 10:53 | 47.27901 | 18.03267 | 38103 ft | 415 kts | 206° |
| 2026-05-09 10:54 | 47.22556 | 18.00138 | 38097 ft | 415 kts | 206° |
| 2026-05-09 10:54 | 47.17168 | 17.96991 | 38104 ft | 415 kts | 206° |
| 2026-05-09 10:55 | 47.11835 | 17.93883 | 38096 ft | 414 kts | 206° |
| 2026-05-09 10:55 | 47.06473 | 17.90765 | 38103 ft | 414 kts | 206° |
| 2026-05-09 10:56 | 47.01143 | 17.87671 | 38100 ft | 413 kts | 206° |
| 2026-05-09 10:56 | 46.96653 | 17.85071 | 38098 ft | 413 kts | 206° |
| 2026-05-09 10:57 | 46.90432 | 17.81476 | 38099 ft | 413 kts | 206° |
| 2026-05-09 10:57 | 46.85082 | 17.78391 | 38101 ft | 413 kts | 206° |
| 2026-05-09 10:58 | 46.79727 | 17.75310 | 38104 ft | 413 kts | 206° |
| 2026-05-09 10:58 | 46.74408 | 17.72256 | 38101 ft | 413 kts | 206° |
| 2026-05-09 10:59 | 46.69052 | 17.69188 | 38103 ft | 413 kts | 206° |
| 2026-05-09 10:59 | 46.63674 | 17.66114 | 38095 ft | 414 kts | 206° |
| 2026-05-09 11:00 | 46.58329 | 17.63065 | 38099 ft | 415 kts | 206° |
| 2026-05-09 11:00 | 46.52947 | 17.60001 | 38096 ft | 415 kts | 205° |
| 2026-05-09 11:01 | 46.47559 | 17.56941 | 38091 ft | 415 kts | 205° |
| 2026-05-09 11:01 | 46.42204 | 17.53906 | 38095 ft | 415 kts | 205° |
| 2026-05-09 11:02 | 46.36809 | 17.50854 | 38096 ft | 415 kts | 205° |
| 2026-05-09 11:02 | 46.31452 | 17.47830 | 38097 ft | 414 kts | 205° |
| 2026-05-09 11:03 | 46.26075 | 17.44802 | 38095 ft | 414 kts | 205° |
| 2026-05-09 11:03 | 46.20743 | 17.41805 | 38093 ft | 413 kts | 205° |
| 2026-05-09 11:04 | 46.15383 | 17.38799 | 38091 ft | 412 kts | 205° |
| 2026-05-09 11:04 | 46.10036 | 17.35805 | 38090 ft | 411 kts | 205° |
| 2026-05-09 11:05 | 46.04696 | 17.32821 | 38088 ft | 410 kts | 205° |
| 2026-05-09 11:05 | 45.99418 | 17.29887 | 38101 ft | 408 kts | 204° |
| 2026-05-09 11:06 | 45.93939 | 17.27655 | 38090 ft | 409 kts | 199° |
| 2026-05-09 11:06 | 45.88435 | 17.25608 | 38091 ft | 407 kts | 199° |
| 2026-05-09 11:07 | 45.82947 | 17.23556 | 38097 ft | 406 kts | 199° |
| 2026-05-09 11:07 | 45.77474 | 17.21522 | 38085 ft | 407 kts | 198° |
| 2026-05-09 11:08 | 45.72010 | 17.19514 | 38094 ft | 407 kts | 198° |
| 2026-05-09 11:08 | 45.66501 | 17.17492 | 38094 ft | 409 kts | 198° |
| 2026-05-09 11:09 | 45.60976 | 17.15464 | 38092 ft | 410 kts | 198° |
| 2026-05-09 11:09 | 45.55466 | 17.13445 | 38094 ft | 411 kts | 198° |
| 2026-05-09 11:10 | 45.49901 | 17.11410 | 38083 ft | 413 kts | 198° |
| 2026-05-09 11:10 | 45.44349 | 17.09383 | 38086 ft | 414 kts | 198° |
| 2026-05-09 11:11 | 45.38750 | 17.07344 | 38081 ft | 415 kts | 198° |
| 2026-05-09 11:11 | 45.33145 | 17.05307 | 38084 ft | 415 kts | 198° |
| 2026-05-09 11:12 | 45.27552 | 17.03278 | 38078 ft | 416 kts | 198° |
| 2026-05-09 11:12 | 45.21935 | 17.01245 | 38082 ft | 416 kts | 198° |
| 2026-05-09 11:13 | 45.16346 | 16.99226 | 38086 ft | 416 kts | 198° |
| 2026-05-09 11:13 | 45.10725 | 16.97199 | 38084 ft | 416 kts | 198° |
| 2026-05-09 11:14 | 45.05114 | 16.95180 | 38079 ft | 415 kts | 198° |
| 2026-05-09 11:14 | 44.99541 | 16.93179 | 38078 ft | 415 kts | 198° |
| 2026-05-09 11:15 | 44.93930 | 16.91167 | 38086 ft | 415 kts | 198° |
| 2026-05-09 11:15 | 44.88311 | 16.89158 | 38073 ft | 416 kts | 198° |
| 2026-05-09 11:16 | 44.82733 | 16.87168 | 38079 ft | 416 kts | 198° |
| 2026-05-09 11:16 | 44.77118 | 16.85167 | 38077 ft | 416 kts | 198° |
| 2026-05-09 11:17 | 44.71517 | 16.83176 | 38082 ft | 416 kts | 198° |
| 2026-05-09 11:17 | 44.65893 | 16.81181 | 38077 ft | 416 kts | 198° |
| 2026-05-09 11:18 | 44.60268 | 16.79189 | 38091 ft | 416 kts | 198° |
| 2026-05-09 11:18 | 44.54670 | 16.77211 | 38073 ft | 417 kts | 198° |
| 2026-05-09 11:19 | 44.49016 | 16.75216 | 38085 ft | 418 kts | 198° |
| 2026-05-09 11:19 | 44.43360 | 16.73225 | 38078 ft | 419 kts | 198° |
| 2026-05-09 11:20 | 44.37726 | 16.71246 | 38076 ft | 420 kts | 198° |
| 2026-05-09 11:20 | 44.32043 | 16.69254 | 38077 ft | 420 kts | 198° |
| 2026-05-09 11:21 | 44.26357 | 16.67265 | 38089 ft | 420 kts | 198° |
| 2026-05-09 11:21 | 44.20676 | 16.65281 | 38078 ft | 421 kts | 198° |
| 2026-05-09 11:22 | 44.15023 | 16.63311 | 38081 ft | 421 kts | 198° |
| 2026-05-09 11:22 | 44.09320 | 16.61327 | 38074 ft | 422 kts | 198° |
| 2026-05-09 11:23 | 44.03645 | 16.59358 | 38074 ft | 422 kts | 198° |
| 2026-05-09 11:23 | 43.97936 | 16.57380 | 38067 ft | 422 kts | 198° |
| 2026-05-09 11:24 | 43.92222 | 16.55405 | 38070 ft | 423 kts | 198° |
| 2026-05-09 11:24 | 43.86539 | 16.53443 | 38056 ft | 424 kts | 198° |
| 2026-05-09 11:25 | 43.80799 | 16.51466 | 38063 ft | 424 kts | 198° |
| 2026-05-09 11:25 | 43.77930 | 16.50484 | 37924 ft | 426 kts | 201° |
| 2026-05-09 11:25 | 43.75051 | 16.49496 | 38016 ft | 427 kts | 202° |
| 2026-05-09 11:26 | 43.69233 | 16.47493 | 38060 ft | 435 kts | 202° |
| 2026-05-09 11:26 | 43.63308 | 16.45458 | 38073 ft | 442 kts | 202° |
| 2026-05-09 11:27 | 43.57341 | 16.43419 | 38071 ft | 446 kts | 201° |
| 2026-05-09 11:27 | 43.51275 | 16.41354 | 38072 ft | 449 kts | 202° |
| 2026-05-09 11:28 | 43.45294 | 16.39330 | 38057 ft | 440 kts | 202° |
| 2026-05-09 11:28 | 43.39366 | 16.37323 | 38065 ft | 437 kts | 202° |
| 2026-05-09 11:29 | 43.33460 | 16.35318 | 38077 ft | 437 kts | 202° |
| 2026-05-09 11:29 | 43.27542 | 16.33312 | 38083 ft | 437 kts | 202° |
| 2026-05-09 11:30 | 43.21649 | 16.31322 | 38088 ft | 438 kts | 202° |
| 2026-05-09 11:30 | 43.15713 | 16.29322 | 38081 ft | 439 kts | 202° |
| 2026-05-09 11:31 | 43.09797 | 16.27333 | 38078 ft | 440 kts | 202° |
| 2026-05-09 11:31 | 43.03826 | 16.25330 | 38077 ft | 441 kts | 202° |
| 2026-05-09 11:32 | 42.97891 | 16.23343 | 38082 ft | 442 kts | 202° |
| 2026-05-09 11:32 | 42.92916 | 16.21680 | 38081 ft | 442 kts | 202° |
| 2026-05-09 11:33 | 42.86918 | 16.19680 | 38080 ft | 443 kts | 202° |
| 2026-05-09 11:33 | 42.77958 | 16.16699 | 38079 ft | 443 kts | 202° |
| 2026-05-09 11:34 | 42.71959 | 16.14708 | 38083 ft | 443 kts | 202° |
| 2026-05-09 11:34 | 42.65949 | 16.12718 | 38079 ft | 443 kts | 202° |
| 2026-05-09 11:35 | 42.59996 | 16.10750 | 38085 ft | 443 kts | 202° |
| 2026-05-09 11:35 | 42.54002 | 16.08772 | 38079 ft | 443 kts | 202° |
| 2026-05-09 11:36 | 42.48000 | 16.06796 | 38090 ft | 442 kts | 202° |
| 2026-05-09 11:36 | 42.42056 | 16.04843 | 38088 ft | 442 kts | 202° |
| 2026-05-09 11:37 | 42.36070 | 16.02879 | 38088 ft | 441 kts | 202° |
| 2026-05-09 11:37 | 42.30092 | 16.00923 | 38090 ft | 441 kts | 202° |
| 2026-05-09 11:38 | 42.24161 | 15.98985 | 38091 ft | 441 kts | 202° |
| 2026-05-09 11:38 | 42.18197 | 15.97040 | 38095 ft | 441 kts | 202° |
| 2026-05-09 11:39 | 42.12219 | 15.95094 | 38093 ft | 440 kts | 202° |
| 2026-05-09 11:40 | 42.03280 | 15.92191 | 38099 ft | 440 kts | 202° |
| 2026-05-09 11:40 | 41.97359 | 15.90274 | 38100 ft | 440 kts | 202° |
| 2026-05-09 11:41 | 41.91398 | 15.88346 | 38105 ft | 440 kts | 202° |
| 2026-05-09 11:41 | 41.85432 | 15.86421 | 38101 ft | 441 kts | 202° |
| 2026-05-09 11:42 | 41.79486 | 15.84506 | 38103 ft | 441 kts | 202° |
| 2026-05-09 11:42 | 41.73504 | 15.82583 | 38084 ft | 441 kts | 202° |
| 2026-05-09 11:43 | 41.67526 | 15.80665 | 38077 ft | 441 kts | 202° |
| 2026-05-09 11:43 | 41.61587 | 15.78764 | 38065 ft | 441 kts | 202° |
| 2026-05-09 11:44 | 41.55620 | 15.76859 | 38065 ft | 440 kts | 202° |
| 2026-05-09 11:44 | 41.49668 | 15.74961 | 38055 ft | 439 kts | 202° |
| 2026-05-09 11:45 | 41.43733 | 15.73071 | 38057 ft | 437 kts | 202° |
| 2026-05-09 11:45 | 41.37822 | 15.71193 | 38054 ft | 436 kts | 202° |
| 2026-05-09 11:46 | 41.31946 | 15.69329 | 38060 ft | 435 kts | 202° |
| 2026-05-09 11:46 | 41.26050 | 15.67462 | 38061 ft | 435 kts | 202° |
| 2026-05-09 11:47 | 41.20165 | 15.65602 | 38061 ft | 434 kts | 202° |
| 2026-05-09 11:47 | 41.14287 | 15.63747 | 38067 ft | 434 kts | 202° |
| 2026-05-09 11:48 | 41.08454 | 15.61910 | 38067 ft | 433 kts | 202° |
| 2026-05-09 11:48 | 41.02578 | 15.60063 | 38065 ft | 433 kts | 202° |
| 2026-05-09 11:49 | 40.96692 | 15.58216 | 38078 ft | 434 kts | 202° |
| 2026-05-09 11:49 | 40.90803 | 15.56371 | 38075 ft | 435 kts | 202° |
| 2026-05-09 11:50 | 40.84942 | 15.54540 | 38074 ft | 435 kts | 202° |
| 2026-05-09 11:50 | 40.79045 | 15.52700 | 38075 ft | 435 kts | 202° |
| 2026-05-09 11:51 | 40.73139 | 15.50860 | 38063 ft | 436 kts | 202° |
| 2026-05-09 11:51 | 40.67273 | 15.49037 | 38062 ft | 434 kts | 202° |
| 2026-05-09 11:52 | 40.61318 | 15.47503 | 38068 ft | 442 kts | 192° |
| 2026-05-09 11:52 | 40.55076 | 15.48101 | 38084 ft | 458 kts | 177° |
| 2026-05-09 11:53 | 40.48849 | 15.49757 | 38073 ft | 459 kts | 176° |
| 2026-05-09 11:53 | 40.42595 | 15.51449 | 38078 ft | 457 kts | 176° |
| 2026-05-09 11:54 | 40.36357 | 15.53074 | 37971 ft | 458 kts | 177° |
| 2026-05-09 11:54 | 40.33205 | 15.53880 | 37460 ft | 459 kts | 177° |
| 2026-05-09 11:54 | 40.30086 | 15.54676 | 36951 ft | 456 kts | 177° |
| 2026-05-09 11:54 | 40.27019 | 15.55454 | 36462 ft | 454 kts | 177° |
| 2026-05-09 11:55 | 40.23910 | 15.56240 | 35884 ft | 455 kts | 177° |
| 2026-05-09 11:56 | 40.08246 | 15.60192 | 32695 ft | 461 kts | 176° |
| 2026-05-09 11:56 | 40.05085 | 15.60989 | 32006 ft | 462 kts | 176° |
| 2026-05-09 11:56 | 40.01921 | 15.61788 | 31385 ft | 461 kts | 176° |
| 2026-05-09 11:57 | 39.98822 | 15.62573 | 30953 ft | 456 kts | 176° |
| 2026-05-09 11:57 | 39.95711 | 15.63359 | 30476 ft | 453 kts | 175° |
| 2026-05-09 11:57 | 39.92624 | 15.64137 | 29985 ft | 449 kts | 175° |
| 2026-05-09 11:57 | 39.89560 | 15.64908 | 29443 ft | 446 kts | 175° |
| 2026-05-09 11:58 | 39.86524 | 15.65671 | 28964 ft | 441 kts | 175° |
| 2026-05-09 11:58 | 39.83559 | 15.66415 | 28475 ft | 437 kts | 175° |
| 2026-05-09 11:58 | 39.80582 | 15.67161 | 28004 ft | 432 kts | 175° |
| 2026-05-09 11:58 | 39.77641 | 15.67896 | 27516 ft | 429 kts | 175° |
| 2026-05-09 11:59 | 39.74709 | 15.68628 | 27049 ft | 426 kts | 176° |
| 2026-05-09 11:59 | 39.71806 | 15.69353 | 26577 ft | 423 kts | 175° |
| 2026-05-09 11:59 | 39.68925 | 15.70071 | 26122 ft | 420 kts | 176° |
| 2026-05-09 11:59 | 39.66062 | 15.70784 | 25664 ft | 417 kts | 176° |
| 2026-05-09 12:00 | 39.63254 | 15.71483 | 25214 ft | 415 kts | 176° |
| 2026-05-09 12:00 | 39.60421 | 15.72188 | 24762 ft | 413 kts | 176° |
| 2026-05-09 12:00 | 39.57599 | 15.72889 | 24298 ft | 412 kts | 176° |
| 2026-05-09 12:00 | 39.54783 | 15.73588 | 23830 ft | 411 kts | 175° |
| 2026-05-09 12:01 | 39.51978 | 15.74355 | 23231 ft | 415 kts | 169° |
| 2026-05-09 12:01 | 39.49286 | 15.75841 | 22557 ft | 426 kts | 154° |
| 2026-05-09 12:01 | 39.46853 | 15.78071 | 22058 ft | 429 kts | 142° |
| 2026-05-09 12:01 | 39.44787 | 15.80799 | 21563 ft | 430 kts | 134° |
| 2026-05-09 12:02 | 39.42823 | 15.83699 | 21070 ft | 428 kts | 133° |
| 2026-05-09 12:02 | 39.40874 | 15.86604 | 20562 ft | 425 kts | 133° |
| 2026-05-09 12:02 | 39.38935 | 15.89484 | 20091 ft | 423 kts | 133° |
| 2026-05-09 12:02 | 39.37001 | 15.92334 | 19623 ft | 420 kts | 133° |
| 2026-05-09 12:03 | 39.35069 | 15.95162 | 19150 ft | 418 kts | 133° |
| 2026-05-09 12:03 | 39.33146 | 15.97962 | 18690 ft | 415 kts | 133° |
| 2026-05-09 12:03 | 39.31254 | 16.00707 | 18206 ft | 413 kts | 133° |
| 2026-05-09 12:03 | 39.29343 | 16.03474 | 17690 ft | 411 kts | 133° |
| 2026-05-09 12:04 | 39.27443 | 16.06221 | 17184 ft | 408 kts | 133° |
| 2026-05-09 12:04 | 39.25554 | 16.08949 | 16683 ft | 407 kts | 133° |
| 2026-05-09 12:04 | 39.23670 | 16.11668 | 16103 ft | 405 kts | 133° |
| 2026-05-09 12:04 | 39.21794 | 16.14374 | 15701 ft | 404 kts | 133° |
| 2026-05-09 12:05 | 39.19922 | 16.17073 | 15204 ft | 402 kts | 134° |
| 2026-05-09 12:05 | 39.18058 | 16.19757 | 14727 ft | 400 kts | 134° |
| 2026-05-09 12:05 | 39.16226 | 16.22394 | 14261 ft | 398 kts | 134° |
| 2026-05-09 12:05 | 39.14374 | 16.25056 | 13754 ft | 396 kts | 134° |
| 2026-05-09 12:06 | 39.12541 | 16.27691 | 13216 ft | 393 kts | 133° |
| 2026-05-09 12:06 | 39.10717 | 16.30310 | 12730 ft | 391 kts | 133° |
| 2026-05-09 12:06 | 39.08905 | 16.32909 | 12221 ft | 389 kts | 133° |
| 2026-05-09 12:06 | 39.07097 | 16.35501 | 11717 ft | 387 kts | 133° |
| 2026-05-09 12:07 | 39.05325 | 16.38039 | 11232 ft | 384 kts | 133° |
| 2026-05-09 12:07 | 39.03543 | 16.40589 | 10766 ft | 382 kts | 133° |
| 2026-05-09 12:07 | 39.01712 | 16.43040 | 10309 ft | 377 kts | 143° |
| 2026-05-09 12:07 | 38.99459 | 16.44614 | 10176 ft | 359 kts | 166° |
| 2026-05-09 12:08 | 38.97093 | 16.45080 | 10122 ft | 339 kts | 186° |
| 2026-05-09 12:08 | 38.94819 | 16.44583 | 10132 ft | 329 kts | 204° |
| 2026-05-09 12:08 | 38.92823 | 16.43219 | 10111 ft | 321 kts | 227° |
| 2026-05-09 12:08 | 38.91521 | 16.40956 | 10120 ft | 314 kts | 242° |
| 2026-05-09 12:09 | 38.90407 | 16.38543 | 10101 ft | 311 kts | 249° |
| 2026-05-09 12:09 | 38.89882 | 16.35937 | 10052 ft | 306 kts | 266° |
| 2026-05-09 12:09 | 38.89531 | 16.33242 | 9752 ft | 307 kts | 252° |
| 2026-05-09 12:10 | 38.84483 | 16.28977 | 8970 ft | 314 kts | 179° |
| 2026-05-09 12:10 | 38.82375 | 16.29691 | 8650 ft | 318 kts | 155° |
| 2026-05-09 12:10 | 38.80630 | 16.31453 | 8240 ft | 323 kts | 129° |
| 2026-05-09 12:11 | 38.79567 | 16.33985 | 7837 ft | 325 kts | 105° |
| 2026-05-09 12:11 | 38.79078 | 16.36764 | 7399 ft | 317 kts | 99° |
| 2026-05-09 12:11 | 38.78704 | 16.39498 | 6928 ft | 313 kts | 98° |
| 2026-05-09 12:11 | 38.78463 | 16.41345 | 6600 ft | 309 kts | 98° |
| 2026-05-09 12:12 | 38.78015 | 16.44895 | 5965 ft | 301 kts | 98° |
| 2026-05-09 12:12 | 38.77860 | 16.47542 | 5535 ft | 294 kts | 82° |
| 2026-05-09 12:12 | 38.78535 | 16.49940 | 5221 ft | 281 kts | 54° |
| 2026-05-09 12:12 | 38.79913 | 16.51601 | 4915 ft | 269 kts | 27° |
| 2026-05-09 12:13 | 38.81637 | 16.52324 | 4550 ft | 261 kts | 9° |
| 2026-05-09 12:13 | 38.83418 | 16.52676 | 4169 ft | 257 kts | 7° |
| 2026-05-09 12:13 | 38.85139 | 16.52627 | 4062 ft | 239 kts | 340° |
| 2026-05-09 12:13 | 38.86391 | 16.51442 | 3949 ft | 217 kts | 301° |
| 2026-05-09 12:14 | 38.87020 | 16.49755 | 3719 ft | 205 kts | 293° |
| 2026-05-09 12:14 | 38.87532 | 16.48092 | 3470 ft | 195 kts | 285° |
| 2026-05-09 12:14 | 38.87891 | 16.46445 | 3211 ft | 188 kts | 283° |
| 2026-05-09 12:14 | 38.88150 | 16.44829 | 2954 ft | 182 kts | 279° |
| 2026-05-09 12:15 | 38.88354 | 16.43265 | 2741 ft | 174 kts | 279° |
| 2026-05-09 12:15 | 38.88530 | 16.41726 | 2479 ft | 173 kts | 277° |
| 2026-05-09 12:15 | 38.88702 | 16.40202 | 2245 ft | 172 kts | 277° |
| 2026-05-09 12:15 | 38.88870 | 16.38681 | 2017 ft | 172 kts | 277° |
| 2026-05-09 12:16 | 38.88987 | 16.37676 | 1845 ft | 171 kts | 277° |
| 2026-05-09 12:16 | 38.89214 | 16.35682 | 1537 ft | 169 kts | 277° |
| 2026-05-09 12:16 | 38.89384 | 16.34211 | 1305 ft | 163 kts | 277° |
| 2026-05-09 12:16 | 38.89494 | 16.33253 | 1176 ft | 157 kts | 277° |
| 2026-05-09 12:17 | 38.89651 | 16.31892 | 972 ft | 154 kts | 277° |
| 2026-05-09 12:17 | 38.89861 | 16.30125 | 789 ft | 147 kts | 276° |
| 2026-05-09 12:17 | 38.90012 | 16.28809 | 604 ft | 150 kts | 276° |
| 2026-05-09 12:17 | 38.90164 | 16.27508 | 339 ft | 145 kts | 278° |
| 2026-05-09 12:18 | 38.90258 | 16.26668 | 198 ft | 142 kts | 278° |
| 2026-05-09 12:18 | 38.90443 | 16.25038 | 34 ft | 125 kts | 278° |
| 2026-05-09 12:18 | 38.90545 | 16.24207 | 26 ft | 71 kts | 278° |
| 2026-05-09 12:18 | 38.90629 | 16.23670 | 30 ft | 52 kts | 300° |
| 2026-05-09 12:19 | 38.90774 | 16.23480 | 32 ft | 23 kts | 357° |
| 2026-05-09 12:19 | 38.90833 | 16.23633 | 31 ft | 22 kts | 99° |
| 2026-05-09 12:19 | 38.90837 | 16.23789 | 30 ft | 13 kts | 29° |
| 2026-05-09 12:19 | 38.90876 | 16.23829 | 31 ft | 11 kts | 78° |
| 2026-05-09 12:20 | 38.90869 | 16.23950 | 29 ft | 18 kts | 98° |
| 2026-05-09 12:20 | 38.90846 | 16.24146 | 31 ft | 25 kts | 98° |
| 2026-05-09 12:20 | 38.90820 | 16.24365 | 31 ft | 24 kts | 98° |
| 2026-05-09 12:20 | 38.90810 | 16.24503 | 31 ft | 6 kts | 56° |
| 2026-05-09 12:21 | 38.90851 | 16.24517 | 31 ft | 5 kts | 7° |
| 2026-05-09 12:21 | 38.90859 | 16.24518 | 31 ft | 0 kts | 8° |
| 2026-05-09 12:22 | 38.90866 | 16.24526 | 31 ft | 0 kts | 56° |